Time;durP1;ratioP1;P1;durP2;ratioP2;P2;SDS_P1;SDS_P2;PMS_P1;PMS_P2;Temp;Humidity;BMP_temperature;BMP_pressure;BME280_temperature;BME280_humidity;BME280_pressure;Samples;Min_cycle;Max_cycle;Signal;HPM_P1;HPM_P2
2021/11/14 00:02:06;;;;;;;50.80;30.10;;;;;;;8.02;90.04;101999.34;5048366;28;20293;-72
2021/11/14 00:04:31;;;;;;;52.40;30.73;;;;;;;8.02;89.90;102001.91;5049454;28;20189;-72
2021/11/14 00:06:56;;;;;;;47.80;29.20;;;;;;;8.02;89.93;102006.16;5047809;28;20213;-74
2021/11/14 00:09:22;;;;;;;48.60;29.80;;;;;;;8.01;90.25;102007.81;5026806;28;20726;-74
2021/11/14 00:11:47;;;;;;;53.07;30.27;;;;;;;8.02;90.26;102006.16;5029820;28;20663;-74
2021/11/14 00:14:12;;;;;;;56.13;33.87;;;;;;;8.02;90.32;102017.19;5028542;28;20751;-74
2021/11/14 00:16:38;;;;;;;56.57;32.87;;;;;;;8.00;89.89;102013.72;5029527;28;20190;-71
2021/11/14 00:19:03;;;;;;;56.30;32.07;;;;;;;8.01;90.44;102015.47;5029918;28;20189;-74
2021/11/14 00:21:30;;;;;;;58.17;33.30;;;;;;;8.00;90.29;102011.16;5029793;28;20186;-74
2021/11/14 00:23:57;;;;;;;53.63;30.73;;;;;;;8.01;89.52;102012.06;5035947;28;20204;-74
2021/11/14 00:26:23;;;;;;;56.00;28.90;;;;;;;8.01;89.74;102015.47;5049083;28;20200;-74
2021/11/14 00:28:48;;;;;;;54.73;30.00;;;;;;;8.01;90.63;102012.91;5048251;28;20186;-74
2021/11/14 00:31:17;;;;;;;56.83;30.43;;;;;;;8.02;89.79;102013.78;5029473;28;20237;-74
2021/11/14 00:33:45;;;;;;;55.10;30.37;;;;;;;8.02;90.68;102022.31;5028241;28;20256;-72
2021/11/14 00:36:15;;;;;;;61.73;31.47;;;;;;;8.01;90.08;102027.34;5029594;28;20195;-72
2021/11/14 00:38:40;;;;;;;51.23;28.80;;;;;;;8.02;90.75;102029.09;5039690;28;20275;-72
2021/11/14 00:41:06;;;;;;;61.47;32.97;;;;;;;8.02;91.08;102024.84;5048391;28;20686;-74
2021/11/14 00:43:31;;;;;;;49.27;30.33;;;;;;;8.03;90.59;102025.75;5049693;28;20531;-73
2021/11/14 00:45:57;;;;;;;62.20;35.60;;;;;;;8.01;90.71;102035.00;5049491;28;20227;-74
2021/11/14 00:48:23;;;;;;;55.47;30.97;;;;;;;7.99;90.47;102029.81;5031584;28;20202;-72
2021/11/14 00:50:48;;;;;;;58.30;33.83;;;;;;;8.00;90.57;102034.13;5028393;28;20212;-74
2021/11/14 00:53:17;;;;;;;63.90;39.20;;;;;;;8.01;91.19;102035.88;5030390;28;20687;-74
2021/11/14 00:55:43;;;;;;;62.60;37.97;;;;;;;8.01;90.77;102035.88;5031114;28;20186;-72
2021/11/14 00:58:09;;;;;;;55.27;31.77;;;;;;;8.01;91.10;102042.66;5033281;28;20186;-73
2021/11/14 01:00:36;;;;;;;57.40;31.77;;;;;;;8.01;90.78;102043.50;5032079;28;20203;-72
2021/11/14 01:03:03;;;;;;;55.93;32.77;;;;;;;8.00;90.84;102054.53;5033249;28;20186;-73
2021/11/14 01:05:31;;;;;;;54.87;31.73;;;;;;;8.00;91.00;102048.53;5032205;28;20251;-75
2021/11/14 01:07:57;;;;;;;53.43;29.43;;;;;;;8.01;91.07;102063.06;5031971;28;20524;-74
2021/11/14 01:10:26;;;;;;;51.87;30.50;;;;;;;8.01;91.57;102065.63;5033360;28;20251;-73
2021/11/14 01:12:52;;;;;;;58.10;31.53;;;;;;;8.00;91.22;102064.72;5032983;28;20671;-73
2021/11/14 01:15:19;;;;;;;58.73;31.93;;;;;;;8.01;91.47;102070.72;5034163;28;20201;-71
2021/11/14 01:17:45;;;;;;;58.03;31.77;;;;;;;8.00;91.31;102076.59;5032992;28;20190;-73
2021/11/14 01:20:15;;;;;;;64.20;32.03;;;;;;;8.00;91.42;102071.50;5032977;28;20217;-74
2021/11/14 01:22:40;;;;;;;60.37;31.47;;;;;;;7.98;91.52;102084.19;5032958;28;20190;-74
2021/11/14 01:25:09;;;;;;;56.27;31.43;;;;;;;7.99;90.91;102078.28;5031677;28;20194;-73
2021/11/14 01:27:36;;;;;;;54.93;30.23;;;;;;;8.02;90.59;102078.41;5032737;28;20764;-74
2021/11/14 01:30:04;;;;;;;58.43;31.30;;;;;;;8.01;90.38;102083.47;5040438;28;20251;-75
2021/11/14 01:32:30;;;;;;;58.40;31.10;;;;;;;8.00;91.07;102084.25;5043005;28;20201;-74
2021/11/14 01:34:55;;;;;;;67.47;32.20;;;;;;;8.01;90.30;102089.41;5032936;28;20214;-74
2021/11/14 01:37:20;;;;;;;57.30;31.83;;;;;;;8.01;90.88;102086.88;5040229;28;20196;-74
2021/11/14 01:39:46;;;;;;;66.93;32.80;;;;;;;8.01;90.55;102091.13;5052516;28;20205;-74
2021/11/14 01:42:11;;;;;;;63.33;32.33;;;;;;;8.01;90.80;102091.13;5051094;28;20188;-73
2021/11/14 01:44:36;;;;;;;63.80;32.63;;;;;;;8.03;90.53;102097.16;5052641;28;20350;-72
2021/11/14 01:47:02;;;;;;;65.97;33.40;;;;;;;8.01;91.51;102099.63;5051266;28;20247;-71
2021/11/14 01:49:28;;;;;;;62.10;33.07;;;;;;;8.01;90.97;102091.97;5050540;28;20591;-74
2021/11/14 01:51:53;;;;;;;61.63;31.20;;;;;;;8.02;91.19;102097.97;5051197;28;20673;-73
2021/11/14 01:54:19;;;;;;;59.87;31.50;;;;;;;8.01;91.69;102098.78;5052685;28;20206;-74
2021/11/14 01:56:48;;;;;;;63.70;33.73;;;;;;;8.01;90.63;102099.63;5041156;28;20556;-72
2021/11/14 01:59:14;;;;;;;69.03;32.83;;;;;;;8.02;91.87;102105.63;5032513;28;20194;-74
2021/11/14 02:01:39;;;;;;;62.13;31.63;;;;;;;8.02;91.36;102105.63;5032273;28;20201;-74
2021/11/14 02:04:06;;;;;;;71.77;33.50;;;;;;;8.00;91.47;102107.19;5033594;28;20613;-72
2021/11/14 02:06:33;;;;;;;73.20;33.87;;;;;;;8.00;91.25;102117.41;5013788;28;20193;-71
2021/11/14 02:08:59;;;;;;;76.93;33.93;;;;;;;8.01;91.54;102112.38;5032055;28;20195;-74
2021/11/14 02:11:25;;;;;;;81.80;35.97;;;;;;;7.99;91.19;102114.00;5032196;28;20592;-74
2021/11/14 02:13:51;;;;;;;72.83;33.17;;;;;;;7.99;91.55;102111.44;5049363;28;20213;-73
2021/11/14 02:16:20;;;;;;;70.90;34.23;;;;;;;8.02;90.71;102115.81;5049044;28;20535;-74
2021/11/14 02:21:26;;;;;;;75.17;35.13;;;;;;;7.99;91.36;102114.00;5024462;28;20738;-76
2021/11/14 02:23:51;;;;;;;72.90;34.93;;;;;;;8.00;91.26;102118.28;5006567;28;20178;-76
2021/11/14 02:26:18;;;;;;;81.03;35.37;;;;;;;8.01;91.57;102117.47;5011439;28;20203;-77
2021/11/14 02:28:43;;;;;;;73.53;34.67;;;;;;;8.02;90.58;102123.47;5011372;28;20680;-76
2021/11/14 02:31:09;;;;;;;69.90;36.07;;;;;;;8.02;91.74;102128.56;5013928;28;20302;-77
2021/11/14 02:33:35;;;;;;;72.57;36.03;;;;;;;7.99;91.27;102126.75;5031919;28;20213;-76
2021/11/14 02:36:05;;;;;;;76.17;35.33;;;;;;;8.01;90.88;102135.31;5031051;28;20213;-77
2021/11/14 02:38:30;;;;;;;75.70;35.40;;;;;;;8.00;91.09;102131.03;5032938;28;20182;-78
2021/11/14 02:40:57;;;;;;;77.63;35.40;;;;;;;8.00;90.88;102136.13;5032978;28;20324;-77
2021/11/14 02:43:23;;;;;;;78.70;35.40;;;;;;;8.03;90.65;102146.50;5032653;28;20663;-78
2021/11/14 02:45:50;;;;;;;85.90;37.47;;;;;;;8.03;91.52;102150.72;5015236;28;20194;-77
2021/11/14 02:48:16;;;;;;;73.20;34.57;;;;;;;8.02;90.74;102152.38;5031279;28;20197;-77
2021/11/14 02:50:43;;;;;;;75.70;35.70;;;;;;;8.03;91.62;102155.81;5033068;28;20202;-76
2021/11/14 02:53:10;;;;;;;73.87;34.93;;;;;;;8.02;91.10;102161.72;5030733;28;20837;-77
2021/11/14 02:55:36;;;;;;;83.07;35.93;;;;;;;8.03;91.25;102155.81;5032591;28;20353;-77
2021/11/14 02:58:03;;;;;;;80.90;36.07;;;;;;;8.02;91.37;102165.13;5030721;28;20675;-76
2021/11/14 03:00:38;;;;;;;77.80;35.47;;;;;;;8.04;90.32;102162.66;5031149;28;20202;-76
2021/11/14 03:03:03;;;;;;;77.23;35.33;;;;;;;8.02;91.51;102161.72;5014140;28;20174;-77
2021/11/14 03:05:29;;;;;;;76.03;36.00;;;;;;;8.03;91.16;102168.56;5030878;28;20278;-76
2021/11/14 03:07:55;;;;;;;76.73;37.33;;;;;;;8.02;90.58;102172.78;5030709;28;20666;-77
2021/11/14 03:10:25;;;;;;;76.33;36.27;;;;;;;8.02;90.99;102164.28;5031338;28;20262;-77
2021/11/14 03:13:09;;;;;;;72.53;34.47;;;;;;;8.04;90.88;102171.19;5030285;28;20178;-76
2021/11/14 03:15:37;;;;;;;75.47;36.70;;;;;;;8.02;90.82;102180.44;5030417;28;20659;-77
2021/11/14 03:18:04;;;;;;;78.30;35.57;;;;;;;8.02;90.41;102177.88;5030775;28;20203;-76
2021/11/14 03:20:30;;;;;;;75.37;36.33;;;;;;;8.02;90.53;102179.56;5013264;28;20246;-77
2021/11/14 03:22:55;;;;;;;74.27;35.30;;;;;;;8.04;90.74;102175.41;5025027;28;20186;-77
2021/11/14 03:25:23;;;;;;;75.80;37.33;;;;;;;8.03;90.29;102173.66;5030478;28;20240;-76
2021/11/14 03:27:51;;;;;;;73.77;35.87;;;;;;;8.05;91.37;102180.59;5031369;28;20194;-77
2021/11/14 03:30:17;;;;;;;72.07;35.33;;;;;;;8.05;91.54;102180.59;5029653;28;20264;-77
2021/11/14 03:32:42;;;;;;;76.33;37.33;;;;;;;8.04;90.62;102178.84;5029907;28;20630;-76
2021/11/14 03:35:08;;;;;;;80.07;36.10;;;;;;;8.04;91.51;102176.31;5029812;28;20244;-77
2021/11/14 03:37:34;;;;;;;75.97;37.67;;;;;;;8.03;90.98;102182.22;5029776;28;20226;-76
2021/11/14 03:40:00;;;;;;;74.87;37.07;;;;;;;8.02;91.31;102187.22;5030633;28;20210;-77
2021/11/14 03:42:25;;;;;;;81.13;37.40;;;;;;;8.05;91.25;102180.59;5013450;28;20576;-77
2021/11/14 03:44:51;;;;;;;79.00;36.00;;;;;;;8.03;91.40;102187.31;5030851;28;20182;-77
2021/11/14 03:47:17;;;;;;;72.90;36.80;;;;;;;8.03;91.01;102187.31;5030427;28;20192;-77
2021/11/14 03:49:42;;;;;;;76.20;37.53;;;;;;;8.01;91.87;102186.34;5031040;28;20767;-77
2021/11/14 03:52:09;;;;;;;75.07;36.20;;;;;;;8.01;91.07;102201.63;5031178;28;20659;-75
2021/11/14 03:54:34;;;;;;;70.33;35.70;;;;;;;8.04;91.44;102199.25;5030587;28;20301;-77
2021/11/14 03:57:00;;;;;;;74.20;34.73;;;;;;;8.02;91.06;102192.31;5030632;28;20250;-76
2021/11/14 03:59:25;;;;;;;72.57;34.83;;;;;;;8.02;91.08;102207.63;5029332;28;20226;-77
2021/11/14 04:01:51;;;;;;;66.60;35.67;;;;;;;8.01;90.59;102205.88;5028758;28;20217;-77
2021/11/14 04:04:16;;;;;;;71.80;35.40;;;;;;;8.02;90.84;102205.94;5029195;28;20627;-76
2021/11/14 04:06:41;;;;;;;69.50;35.30;;;;;;;7.99;90.82;102204.91;5028714;28;20269;-76
2021/11/14 04:09:07;;;;;;;76.77;35.53;;;;;;;7.99;90.88;102204.91;5028644;28;20194;-77
2021/11/14 04:11:32;;;;;;;69.40;35.10;;;;;;;8.01;91.39;102209.28;5030057;28;20182;-77
2021/11/14 04:13:58;;;;;;;64.03;33.43;;;;;;;8.01;91.35;102213.53;5030243;28;20214;-77
2021/11/14 04:16:24;;;;;;;65.47;32.80;;;;;;;8.01;91.18;102214.38;5029672;28;20813;-77
2021/11/14 04:18:49;;;;;;;61.27;33.10;;;;;;;8.02;90.84;102218.69;5030410;28;20186;-77
2021/11/14 04:21:15;;;;;;;63.13;33.33;;;;;;;8.02;91.31;102220.38;5029230;28;20194;-76
2021/11/14 04:23:40;;;;;;;63.37;32.70;;;;;;;8.02;91.46;102226.34;5030042;28;20181;-76
2021/11/14 04:26:07;;;;;;;58.40;30.63;;;;;;;8.04;90.77;102228.97;5028485;28;20190;-77
2021/11/14 04:28:33;;;;;;;61.37;32.13;;;;;;;8.00;91.05;102225.41;5028678;28;20190;-76
2021/11/14 04:30:59;;;;;;;58.83;32.20;;;;;;;8.00;91.07;102233.06;5028933;28;20217;-76
2021/11/14 04:33:25;;;;;;;57.07;31.17;;;;;;;8.03;90.99;102238.31;5028255;28;20210;-77
2021/11/14 04:35:51;;;;;;;63.40;32.27;;;;;;;8.00;90.80;102235.59;5028642;28;20213;-76
2021/11/14 04:38:17;;;;;;;57.80;31.83;;;;;;;8.00;90.54;102238.16;5011801;28;20182;-77
2021/11/14 04:40:43;;;;;;;60.20;32.20;;;;;;;8.02;90.49;102241.66;5028781;28;20214;-76
2021/11/14 04:43:12;;;;;;;59.23;31.10;;;;;;;8.01;91.02;102242.44;5028810;28;20195;-77
2021/11/14 04:45:38;;;;;;;60.43;31.80;;;;;;;8.02;91.51;102244.19;5028778;28;20277;-77
2021/11/14 04:48:06;;;;;;;60.77;31.27;;;;;;;8.01;91.15;102246.69;5028712;28;20182;-76
2021/11/14 04:50:32;;;;;;;57.03;29.30;;;;;;;8.03;91.45;102247.63;5028734;28;20202;-76
2021/11/14 04:52:57;;;;;;;55.03;30.23;;;;;;;8.03;90.88;102248.53;5028627;28;20198;-77
2021/11/14 04:55:22;;;;;;;56.83;28.87;;;;;;;8.02;90.96;102259.50;5028744;28;20701;-76
2021/11/14 04:57:51;;;;;;;54.70;28.63;;;;;;;8.01;91.11;102262.84;5028347;28;20686;-77
2021/11/14 05:00:22;;;;;;;53.03;29.20;;;;;;;8.02;90.80;102271.38;5028716;28;20568;-76
2021/11/14 05:02:49;;;;;;;56.30;29.87;;;;;;;8.03;91.46;102261.28;5027750;28;20709;-76
2021/11/14 05:05:14;;;;;;;53.13;29.30;;;;;;;8.03;91.05;102271.47;5029701;28;20179;-76
2021/11/14 05:07:40;;;;;;;49.13;29.23;;;;;;;8.05;90.80;102268.97;5028114;28;20282;-77
2021/11/14 05:10:06;;;;;;;56.73;29.73;;;;;;;8.03;91.62;102271.47;5028173;28;20268;-76
2021/11/14 05:12:32;;;;;;;55.37;30.97;;;;;;;8.04;91.73;102272.34;5011950;28;20189;-78
2021/11/14 05:14:57;;;;;;;54.00;29.93;;;;;;;8.05;91.62;102276.63;5028430;28;20222;-78
2021/11/14 05:17:22;;;;;;;60.50;31.43;;;;;;;8.07;91.38;102272.50;5029613;28;20186;-76
2021/11/14 05:19:49;;;;;;;59.37;30.73;;;;;;;8.06;91.36;102280.97;5028406;28;20329;-75
2021/11/14 05:22:14;;;;;;;57.07;30.73;;;;;;;8.06;91.42;102283.50;5028884;28;20647;-77
2021/11/14 05:24:40;;;;;;;56.20;31.30;;;;;;;8.06;91.15;102286.06;5030206;28;20201;-76
2021/11/14 05:27:05;;;;;;;68.10;31.83;;;;;;;8.05;91.34;102287.72;5028627;28;20233;-76
2021/11/14 05:29:31;;;;;;;63.50;32.80;;;;;;;8.03;91.45;102285.88;5029284;28;20202;-76
2021/11/14 05:31:56;;;;;;;63.73;32.13;;;;;;;8.05;91.41;102286.84;5011355;28;20272;-76
2021/11/14 05:34:21;;;;;;;63.93;30.97;;;;;;;8.03;91.79;102296.09;5008901;28;20714;-76
2021/11/14 05:36:47;;;;;;;64.00;30.47;;;;;;;8.04;91.41;102291.06;5028488;28;20195;-77
2021/11/14 05:39:12;;;;;;;69.00;33.53;;;;;;;8.05;91.57;102300.47;5028283;28;20210;-77
2021/11/14 05:41:37;;;;;;;62.80;31.57;;;;;;;8.05;91.48;102302.13;5031139;28;20224;-77
2021/11/14 05:44:03;;;;;;;67.27;31.83;;;;;;;8.06;91.63;102301.38;5015281;28;20567;-77
2021/11/14 05:46:28;;;;;;;69.53;31.77;;;;;;;8.07;91.13;102301.41;5033026;28;20706;-76
2021/11/14 05:48:54;;;;;;;70.67;31.53;;;;;;;8.08;91.70;102309.97;5015201;28;20182;-76
2021/11/14 05:51:20;;;;;;;66.77;31.40;;;;;;;8.06;92.38;102309.88;5014973;28;20186;-76
2021/11/14 05:53:45;;;;;;;74.97;33.27;;;;;;;8.07;91.62;102314.19;5031474;28;20224;-76
2021/11/14 05:56:11;;;;;;;68.07;31.87;;;;;;;8.07;91.83;102318.41;5032153;28;20194;-77
2021/11/14 05:58:44;;;;;;;72.60;32.47;;;;;;;8.08;91.77;102321.06;5012488;28;20222;-77
2021/11/14 06:01:15;;;;;;;75.67;33.03;;;;;;;8.09;91.21;102320.25;5028293;28;20581;-77
2021/11/14 06:03:52;;;;;;;74.50;31.77;;;;;;;8.08;91.28;102328.72;5032010;28;20194;-76
2021/11/14 06:06:18;;;;;;;68.77;31.53;;;;;;;8.09;91.62;102327.91;5032376;28;20194;-76
2021/11/14 06:08:43;;;;;;;68.03;31.83;;;;;;;8.08;90.94;102330.38;5015017;28;20195;-77
2021/11/14 06:11:09;;;;;;;75.57;33.37;;;;;;;8.09;91.64;102335.56;5032796;28;20206;-76
2021/11/14 06:13:34;;;;;;;69.03;32.33;;;;;;;8.10;91.08;102337.31;5015238;28;20631;-76
2021/11/14 06:16:00;;;;;;;71.43;33.33;;;;;;;8.11;91.37;102345.84;5013901;28;20197;-77
2021/11/14 06:18:26;;;;;;;69.10;32.80;;;;;;;8.10;91.85;102350.06;5032898;28;20214;-77
2021/11/14 06:20:51;;;;;;;67.17;31.27;;;;;;;8.10;91.43;102352.59;5031019;28;20222;-76
2021/11/14 06:23:17;;;;;;;66.57;30.40;;;;;;;8.12;91.27;102355.25;5033249;28;20242;-76
2021/11/14 06:25:42;;;;;;;75.47;32.50;;;;;;;8.11;91.14;102354.34;5032584;28;20194;-77
2021/11/14 06:28:09;;;;;;;70.70;32.27;;;;;;;8.12;91.62;102363.78;5032987;28;20271;-77
2021/11/14 06:30:35;;;;;;;71.73;30.87;;;;;;;8.12;90.84;102365.44;5015325;28;20244;-76
2021/11/14 06:33:01;;;;;;;65.47;32.17;;;;;;;8.14;91.10;102368.94;5031083;28;20286;-77
2021/11/14 06:35:26;;;;;;;72.67;31.77;;;;;;;8.14;91.05;102377.50;5031325;28;21099;-77
2021/11/14 06:37:52;;;;;;;72.73;31.50;;;;;;;8.15;90.77;102383.50;5031208;28;20655;-76
2021/11/14 06:40:18;;;;;;;74.93;32.07;;;;;;;8.15;90.80;102381.78;5032835;28;20296;-77
2021/11/14 06:42:43;;;;;;;69.60;31.83;;;;;;;8.13;90.93;102385.94;5032778;28;20187;-77
2021/11/14 06:45:09;;;;;;;72.23;32.83;;;;;;;8.13;91.37;102393.59;5031913;28;20663;-76
2021/11/14 06:47:36;;;;;;;69.63;32.33;;;;;;;8.16;90.74;102403.09;5031290;28;20671;-77
2021/11/14 06:50:02;;;;;;;74.20;32.53;;;;;;;8.16;90.97;102415.84;5033103;28;20229;-77
2021/11/14 06:52:27;;;;;;;74.57;31.97;;;;;;;8.16;91.04;102415.84;5011651;28;20302;-78
2021/11/14 06:54:52;;;;;;;81.63;33.17;;;;;;;8.15;90.86;102421.75;5031467;28;20652;-77
2021/11/14 06:57:19;;;;;;;72.00;33.40;;;;;;;8.16;90.36;102420.94;5032660;28;20194;-78
2021/11/14 06:59:46;;;;;;;73.93;32.50;;;;;;;8.17;90.84;102430.34;5032212;28;20203;-77
2021/11/14 07:02:12;;;;;;;68.10;32.17;;;;;;;8.18;90.68;102429.56;5032803;28;20194;-77
2021/11/14 07:04:37;;;;;;;72.43;31.57;;;;;;;8.20;90.79;102439.06;5033222;28;20187;-77
2021/11/14 07:07:03;;;;;;;73.03;32.90;;;;;;;8.21;90.18;102443.38;5031229;28;20182;-78
2021/11/14 07:09:29;;;;;;;71.93;31.80;;;;;;;8.18;90.70;102438.09;5031339;28;20214;-77
2021/11/14 07:11:54;;;;;;;78.77;33.07;;;;;;;8.21;90.02;102447.63;5032166;28;20189;-77
2021/11/14 07:14:21;;;;;;;71.37;32.03;;;;;;;8.21;90.25;102451.03;5014787;28;20305;-77
2021/11/14 07:16:47;;;;;;;73.43;34.13;;;;;;;8.24;89.90;102456.31;5014743;28;20202;-77
2021/11/14 07:19:12;;;;;;;75.03;33.70;;;;;;;8.24;90.29;102456.31;5014569;28;20209;-77
2021/11/14 07:21:38;;;;;;;74.40;34.20;;;;;;;8.24;89.87;102463.13;5031122;28;20178;-76
2021/11/14 07:24:03;;;;;;;73.63;33.07;;;;;;;8.25;90.39;102468.28;5029742;28;20286;-78
2021/11/14 07:26:29;;;;;;;73.33;32.67;;;;;;;8.26;89.98;102470.06;5029436;28;20249;-76
2021/11/14 07:28:54;;;;;;;71.77;32.33;;;;;;;8.27;90.50;102471.81;5029864;28;20264;-77
2021/11/14 07:31:19;;;;;;;77.43;34.10;;;;;;;8.26;90.01;102475.16;5030423;28;20182;-76
2021/11/14 07:33:45;;;;;;;77.27;33.63;;;;;;;8.28;89.80;102482.88;5030997;28;20224;-77
2021/11/14 07:36:10;;;;;;;70.90;33.07;;;;;;;8.28;90.41;102483.75;5029084;28;20194;-76
2021/11/14 07:38:36;;;;;;;76.83;33.53;;;;;;;8.27;90.32;102487.13;5030345;28;20210;-77
2021/11/14 07:41:01;;;;;;;79.23;33.93;;;;;;;8.31;89.56;102491.59;5028963;28;20206;-76
2021/11/14 07:43:28;;;;;;;69.77;35.90;;;;;;;8.30;90.21;102487.25;5031163;28;20716;-76
2021/11/14 07:45:54;;;;;;;72.77;35.23;;;;;;;8.31;90.21;102501.81;5029639;28;20225;-77
2021/11/14 07:48:19;;;;;;;68.83;34.23;;;;;;;8.33;89.58;102500.19;5029659;28;20217;-77
2021/11/14 07:50:44;;;;;;;69.43;32.70;;;;;;;8.28;90.04;102506.72;5029705;28;20210;-77
2021/11/14 07:53:10;;;;;;;74.77;34.60;;;;;;;8.32;89.40;102510.31;5030066;28;20201;-77
2021/11/14 07:55:35;;;;;;;75.30;34.20;;;;;;;8.32;89.93;102516.31;5013423;28;20190;-77
2021/11/14 07:58:05;;;;;;;69.97;34.10;;;;;;;8.34;89.92;102517.25;5030270;28;20797;-76
2021/11/14 08:00:32;;;;;;;65.53;31.63;;;;;;;8.34;89.76;102521.50;5013129;28;20198;-77
2021/11/14 08:02:58;;;;;;;112.43;55.43;;;;;;;8.35;89.21;102524.16;5013683;28;20194;-77
2021/11/14 08:05:24;;;;;;;78.17;38.40;;;;;;;8.35;89.76;102529.25;5030935;28;20692;-76
2021/11/14 08:07:49;;;;;;;76.23;38.03;;;;;;;8.35;90.19;102530.91;5030999;28;20194;-77
2021/11/14 08:10:17;;;;;;;68.27;34.43;;;;;;;8.31;90.00;102534.97;5029630;28;20220;-77
2021/11/14 08:12:43;;;;;;;66.53;33.37;;;;;;;8.35;89.73;102530.91;5029880;28;20610;-77
2021/11/14 08:15:09;;;;;;;68.53;34.70;;;;;;;8.37;89.96;102542.97;5029343;28;20301;-77
2021/11/14 08:17:34;;;;;;;73.50;38.77;;;;;;;8.38;89.86;102538.75;5029206;28;20186;-76
2021/11/14 08:20:01;;;;;;;96.43;49.13;;;;;;;8.40;89.86;102548.25;5029221;28;20220;-76
2021/11/14 08:22:30;;;;;;;143.13;67.93;;;;;;;8.41;89.94;102541.44;5029836;28;20198;-76
2021/11/14 08:24:57;;;;;;;88.57;42.43;;;;;;;8.41;89.44;102546.56;5030944;28;20179;-77
2021/11/14 08:27:23;;;;;;;84.77;38.87;;;;;;;8.39;90.25;102549.00;5029667;28;20656;-76
2021/11/14 08:29:50;;;;;;;79.57;36.03;;;;;;;8.41;90.03;102555.09;5012358;28;20697;-76
2021/11/14 08:32:16;;;;;;;101.43;46.90;;;;;;;8.41;90.27;102556.75;5012257;28;20778;-76
2021/11/14 08:34:42;;;;;;;87.50;38.87;;;;;;;8.40;89.93;102560.13;5012610;28;20324;-76
2021/11/14 08:37:07;;;;;;;82.03;35.33;;;;;;;8.40;89.78;102553.34;5030505;28;20687;-78
2021/11/14 08:39:32;;;;;;;83.57;38.07;;;;;;;8.41;89.92;102562.75;5009146;28;20245;-75
2021/11/14 08:41:58;;;;;;;72.57;34.30;;;;;;;8.43;89.98;102560.31;5026990;28;20198;-75
2021/11/14 08:44:25;;;;;;;72.73;35.93;;;;;;;8.46;89.04;102566.44;5030806;28;20178;-77
2021/11/14 08:46:52;;;;;;;82.63;39.40;;;;;;;8.48;89.60;102563.97;5029620;28;20191;-76
2021/11/14 08:49:18;;;;;;;118.80;58.27;;;;;;;8.43;89.79;102579.03;5029355;28;20210;-77
2021/11/14 08:51:43;;;;;;;83.50;37.90;;;;;;;8.44;90.14;102572.25;5030317;28;20240;-77
2021/11/14 08:54:08;;;;;;;83.03;38.27;;;;;;;8.49;89.74;102568.28;5030169;28;20790;-77
2021/11/14 08:56:36;;;;;;;129.83;62.23;;;;;;;8.44;90.23;102568.00;5028857;28;20213;-76
2021/11/14 08:59:03;;;;;;;80.83;38.37;;;;;;;8.41;89.83;102575.53;5031234;28;20193;-77
2021/11/14 09:01:29;;;;;;;81.83;39.40;;;;;;;8.46;89.80;102575.75;5029459;28;20194;-77
2021/11/14 09:03:54;;;;;;;153.43;70.30;;;;;;;8.55;89.58;102581.38;5012107;28;20179;-77
2021/11/14 09:06:20;;;;;;;88.60;42.20;;;;;;;8.64;89.49;102582.78;5029399;28;20318;-77
2021/11/14 09:08:45;;;;;;;75.83;37.27;;;;;;;8.75;88.75;102593.59;5028078;28;20671;-76
2021/11/14 09:11:10;;;;;;;74.53;35.60;;;;;;;8.77;88.62;102582.66;5027827;28;20738;-77
2021/11/14 09:13:36;;;;;;;75.37;35.50;;;;;;;8.75;88.06;102593.59;5028542;28;20754;-75
2021/11/14 09:16:02;;;;;;;73.50;34.77;;;;;;;8.75;87.98;102599.56;5031945;28;20206;-77
2021/11/14 09:18:28;;;;;;;77.03;35.97;;;;;;;8.73;88.42;102606.25;5033524;28;20222;-77
2021/11/14 09:20:54;;;;;;;85.40;39.00;;;;;;;8.70;88.33;102618.00;5034845;28;20237;-77
2021/11/14 09:23:20;;;;;;;79.53;37.83;;;;;;;8.69;88.84;102618.75;5033178;28;20282;-76
2021/11/14 09:25:46;;;;;;;78.27;36.73;;;;;;;8.63;89.12;102628.66;5017084;28;20647;-77
2021/11/14 09:28:13;;;;;;;80.83;37.17;;;;;;;8.66;88.30;102624.59;5016937;28;20239;-76
2021/11/14 09:30:42;;;;;;;79.67;35.80;;;;;;;8.62;88.40;102630.31;5033312;28;20217;-78
2021/11/14 09:33:09;;;;;;;78.53;33.83;;;;;;;8.64;89.08;102631.28;5033238;28;20186;-77
2021/11/14 09:35:35;;;;;;;66.73;30.90;;;;;;;8.60;88.61;102634.47;5034136;28;20662;-77
2021/11/14 09:38:01;;;;;;;70.43;31.37;;;;;;;8.65;88.20;102629.59;5015716;28;20177;-77
2021/11/14 09:40:27;;;;;;;66.60;31.00;;;;;;;8.69;88.80;102636.63;5034098;28;20198;-76
2021/11/14 09:42:52;;;;;;;63.03;27.93;;;;;;;8.72;88.36;102639.38;5032256;28;20189;-76
2021/11/14 09:45:17;;;;;;;61.90;29.53;;;;;;;8.67;88.04;102644.22;5032881;28;20650;-77
2021/11/14 09:47:43;;;;;;;63.53;28.40;;;;;;;8.65;88.37;102650.03;5033889;28;20186;-77
2021/11/14 09:50:09;;;;;;;62.43;29.93;;;;;;;8.61;88.22;102641.31;5032344;28;20203;-77
2021/11/14 09:52:35;;;;;;;61.97;28.27;;;;;;;8.63;88.80;102639.75;5032201;28;20278;-76
2021/11/14 09:55:03;;;;;;;74.80;30.80;;;;;;;8.67;88.39;102648.44;5032618;28;20301;-76
2021/11/14 09:57:28;;;;;;;73.47;30.80;;;;;;;8.60;89.17;102647.22;5033288;28;20193;-76
2021/11/14 09:59:53;;;;;;;85.93;33.60;;;;;;;8.67;88.56;102648.44;5032042;28;20272;-77
2021/11/14 10:02:19;;;;;;;67.40;29.60;;;;;;;8.69;88.21;102657.06;5032357;28;20198;-76
2021/11/14 10:04:45;;;;;;;79.43;32.13;;;;;;;8.66;88.55;102659.47;5032526;28;20178;-76
2021/11/14 10:07:14;;;;;;;74.73;33.70;;;;;;;8.64;88.82;102664.47;5032077;28;20193;-77
2021/11/14 10:09:44;;;;;;;77.80;34.90;;;;;;;8.65;89.15;102662.78;5031595;28;20213;-77
2021/11/14 10:12:24;;;;;;;79.57;35.33;;;;;;;8.68;88.74;102678.28;5032370;28;20258;-77
2021/11/14 10:15:12;;;;;;;81.67;35.63;;;;;;;8.68;88.19;102666.41;5032642;28;20766;-77
2021/11/14 10:17:44;;;;;;;83.30;38.20;;;;;;;8.78;88.46;102663.56;5032763;28;20332;-78
2021/11/14 10:20:11;;;;;;;82.60;38.77;;;;;;;8.75;87.79;102670.19;5031670;28;20249;-76
2021/11/14 10:22:41;;;;;;;80.87;38.97;;;;;;;8.77;87.08;102663.50;5032754;28;20180;-77
2021/11/14 10:25:09;;;;;;;86.40;40.83;;;;;;;8.86;86.13;102675.09;5033056;28;20256;-76
2021/11/14 10:27:34;;;;;;;79.33;39.40;;;;;;;8.87;86.40;102670.84;5014608;28;20182;-77
2021/11/14 10:30:00;;;;;;;89.20;42.93;;;;;;;8.79;85.32;102673.00;5031173;28;20703;-77
2021/11/14 10:32:27;;;;;;;90.83;41.60;;;;;;;8.91;85.17;102676.25;5031722;28;20188;-76
2021/11/14 10:34:58;;;;;;;92.23;42.63;;;;;;;8.94;85.13;102670.41;5032769;28;20783;-77
2021/11/14 10:37:24;;;;;;;85.40;42.00;;;;;;;8.90;85.51;102673.59;5031746;28;20182;-77
2021/11/14 10:39:52;;;;;;;86.73;43.00;;;;;;;8.92;85.31;102677.09;5010882;28;20207;-76
2021/11/14 10:42:18;;;;;;;92.97;44.10;;;;;;;8.89;85.30;102675.25;5012602;28;20194;-76
2021/11/14 10:44:49;;;;;;;92.33;44.07;;;;;;;8.85;84.58;102678.44;5030777;28;20186;-77
2021/11/14 10:47:20;;;;;;;88.63;43.50;;;;;;;8.90;84.42;102684.66;5031345;28;20197;-77
2021/11/14 10:49:51;;;;;;;87.90;43.33;;;;;;;8.95;84.46;102684.94;5031533;28;20746;-76
2021/11/14 10:52:17;;;;;;;91.40;43.60;;;;;;;8.90;84.76;102684.66;5030429;28;20197;-76
2021/11/14 10:54:43;;;;;;;93.47;46.07;;;;;;;9.01;84.55;102677.59;5032002;28;20221;-77
2021/11/14 10:57:09;;;;;;;97.40;45.07;;;;;;;9.08;84.72;102674.59;5030393;28;20187;-77
2021/11/14 10:59:34;;;;;;;92.97;44.17;;;;;;;9.02;84.66;102680.25;5030895;28;20577;-76
2021/11/14 11:02:03;;;;;;;85.13;42.10;;;;;;;9.01;83.93;102687.81;5014327;28;20194;-77
2021/11/14 11:04:28;;;;;;;81.67;40.33;;;;;;;9.07;84.38;102693.28;5031766;28;20222;-77
2021/11/14 11:06:54;;;;;;;90.27;42.07;;;;;;;9.11;84.07;102693.53;5030248;28;20270;-77
2021/11/14 11:09:30;;;;;;;88.67;42.63;;;;;;;9.20;84.62;102698.25;5014133;28;20202;-76
2021/11/14 11:11:56;;;;;;;77.70;40.23;;;;;;;9.19;83.82;102697.41;5030640;28;20182;-76
2021/11/14 11:14:26;;;;;;;84.93;41.33;;;;;;;9.10;82.86;102694.34;5031609;28;20220;-77
2021/11/14 11:16:51;;;;;;;81.50;41.80;;;;;;;9.16;83.54;102688.66;5030033;28;20193;-77